Time Latitude Longitude Accuracy (66% radius in meters) Altitude (meters) Speed (km/hour) Bearing (degrees) Battery (%) GPS flag
11:34:32 57.204434 60.121262 10 310 0 0 70 1 delete
11:34:20 57.204434 60.121264 10 310 0 0 70 1 delete
11:34:09 57.204439 60.121261 11 309 0 0 70 1 delete
11:33:57 57.204449 60.121320 12 308 0 0 70 1 delete
11:33:51 57.204453 60.121276 12 310 0 0 70 1 delete
11:33:46 57.204413 60.121117 12 307 0.49000000953674 145.5 70 1 delete
11:33:34 57.204428 60.121099 13 309 0 0 70 1 delete
11:33:23 57.204427 60.121099 11 309 0 0 70 1 delete
11:33:11 57.204426 60.121101 10 310 0 0 70 1 delete
11:33:00 57.204427 60.121099 11 309 0 0 70 1 delete
11:32:50 57.204427 60.121101 10 309 0 0 70 1 delete
11:32:39 57.204424 60.121105 10 310 0 0 70 1 delete
11:32:27 57.204419 60.121098 10 309 0 0 70 1 delete
11:32:15 57.204391 60.121145 9 313 0 0 70 1 delete
11:32:06 57.204399 60.121127 9 313 0 0 70 1 delete
11:32:05 57.204402 60.121116 9 313 0 0 70 1 delete
11:31:55 57.204445 60.121082 10 314 0 0 70 1 delete
11:31:44 57.204445 60.121083 12 314 0 0 74 1 delete
11:31:26 57.204445 60.121083 10 314 0 0 74 1 delete
11:31:15 57.204445 60.121083 10 314 0 0 74 1 delete
11:31:03 57.204445 60.121083 10 314 0 0 74 1 delete
11:30:51 57.204445 60.121084 10 314 0 0 74 1 delete
11:30:39 57.204446 60.121083 10 313 0 0 74 1 delete
11:30:28 57.204446 60.121082 10 313 0 0 74 1 delete
11:30:18 57.204446 60.121081 10 313 0 0 74 1 delete
11:30:07 57.204446 60.121080 9 313 0 0 74 1 delete
11:29:55 57.204447 60.121079 9 313 0 0 74 1 delete
11:29:44 57.204450 60.121082 9 314 0 0 74 1 delete
11:29:32 57.204451 60.121081 9 313 0 0 74 1 delete
11:29:20 57.204465 60.121062 10 314 0 0 74 1 delete
11:29:15 57.204476 60.121038 10 315 0 0 74 1 delete
11:29:10 57.204548 60.120927 12 317 1.3099999427795 9.3000001907349 74 1 delete
11:29:07 57.204481 60.120882 10 315 0.46000000834465 264.5 74 1 delete
11:28:56 57.204492 60.120857 9 314 0 0 74 1 delete
11:28:45 57.204495 60.120860 10 315 0 0 74 1 delete
11:28:33 57.204497 60.120863 6 315 0 0 74 1 delete
11:28:22 57.204499 60.120860 6 316 0 0 74 1 delete
11:28:10 57.204511 60.120881 8 319 0 0 74 1 delete
11:27:59 57.204513 60.120881 8 319 0 0 74 1 delete
11:27:47 57.204522 60.120876 3 321 0 0 74 1 delete
11:27:35 57.204522 60.120837 3 319 0.23000000417233 51.599998474121 74 1 delete
11:27:24 57.204535 60.120837 3 319 0 0 74 1 delete
11:27:13 57.204532 60.120836 3 319 0 0 74 1 delete
11:27:01 57.204543 60.120824 3 318 0.62000000476837 50.299999237061 74 1 delete
11:26:58 57.204500 60.120762 3 321 3.0099999904633 49.900001525879 74 1 delete
11:26:55 57.204452 60.120596 3 319 4.4400000572205 57.900001525879 74 1 delete
11:26:52 57.204430 60.120387 3 318 4.25 85.699996948242 74 1 delete
11:26:49 57.204435 60.120161 3 317 3.3800001144409 99.099998474121 74 1 delete
11:26:46 57.204414 60.119967 5 317 4.0100002288818 66.900001525879 74 1 delete
11:26:43 57.204362 60.119755 5 317 3.5699999332428 58 74 1 delete